Time;durP1;ratioP1;P1;durP2;ratioP2;P2;SDS_P1;SDS_P2;PMS_P1;PMS_P2;Temp;Humidity;BMP_temperature;BMP_pressure;BME280_temperature;BME280_humidity;BME280_pressure;Samples;Min_cycle;Max_cycle;Signal;HPM_P1;HPM_P2
2023/10/23 07:56:36;;;;;;;;;;;;;;;5.46;100.00;99260.75;5033462;23;19999;-87
2023/10/23 07:59:04;;;;;;;;;;;;;;;5.41;100.00;99267.06;5012743;28;22294;-84
2023/10/23 08:01:29;;;;;;;;;;;;;;;5.47;100.00;99256.34;5013549;28;20368;-83
2023/10/23 08:03:54;;;;;;;;;;;;;;;5.51;100.00;99257.13;5014083;28;19921;-86
2023/10/23 08:06:20;;;;;;;;;;;;;;;5.48;100.00;99252.81;5004071;28;19917;-83
2023/10/23 08:08:45;;;;;;;;;;;;;;;5.50;100.00;99248.34;5013615;28;19948;-85
2023/10/23 08:11:11;;;;;;;;;;;;;;;5.55;100.00;99249.09;5012404;28;19967;-84
2023/10/23 08:13:36;;;;;;;;;;;;;;;5.55;100.00;99245.59;5003815;28;19967;-84
2023/10/23 08:16:03;;;;;;;;;;;;;;;5.53;100.00;99243.00;5003567;28;20331;-83
2023/10/23 08:18:28;;;;;;;;;;;;;;;5.58;100.00;99250.75;5012139;28;19917;-83
2023/10/23 08:20:54;;;;;;;;;;;;;;;5.60;100.00;99252.44;5003882;28;19923;-84
2023/10/23 08:23:19;;;;;;;;;;;;;;;5.50;100.00;99253.63;5003531;28;20051;-84
2023/10/23 08:25:44;;;;;;;;;;;;;;;5.52;100.00;99245.69;5002158;28;20376;-84
2023/10/23 08:28:10;;;;;;;;;;;;;;;5.58;100.00;99240.25;5013415;28;19922;-83
2023/10/23 08:30:35;;;;;;;;;;;;;;;5.62;100.00;99229.59;5013234;28;19957;-83
2023/10/23 08:33:00;;;;;;;;;;;;;;;5.61;100.00;99230.50;5013206;28;19971;-83
2023/10/23 08:35:28;;;;;;;;;;;;;;;5.54;100.00;99228.13;5003338;28;20411;-84
2023/10/23 08:37:54;;;;;;;;;;;;;;;5.55;100.00;99229.81;5003498;28;19965;-84
2023/10/23 08:40:19;;;;;;;;;;;;;;;5.60;100.00;99226.16;5011884;28;19956;-84
2023/10/23 08:42:45;;;;;;;;;;;;;;;5.60;100.00;99220.91;5003561;28;20353;-85
2023/10/23 08:45:11;;;;;;;;;;;;;;;5.55;100.00;99220.19;5003198;28;19922;-84
2023/10/23 08:47:36;;;;;;;;;;;;;;;5.68;100.00;99211.91;5011742;28;19918;-85
2023/10/23 08:50:02;;;;;;;;;;;;;;;5.53;100.00;99211.47;5012969;28;19924;-83
2023/10/23 08:52:33;;;;;;;;;;;;;;;5.58;100.00;99212.19;5002379;28;19917;-84
2023/10/23 08:54:59;;;;;;;;;;;;;;;5.56;100.00;99215.78;5010887;28;19921;-84
2023/10/23 08:57:25;;;;;;;;;;;;;;;5.58;100.00;99212.19;5011288;28;19930;-85
2023/10/23 08:59:50;;;;;;;;;;;;;;;5.53;100.00;99208.84;5012549;28;19929;-85
2023/10/23 09:02:16;;;;;;;;;;;;;;;5.56;100.00;99200.88;5004279;28;19995;-84
2023/10/23 09:04:41;;;;;;;;;;;;;;;5.54;100.00;99205.31;5002963;28;19918;-84
2023/10/23 09:07:06;;;;;;;;;;;;;;;5.56;100.00;99200.00;4997573;28;19948;-84
2023/10/23 09:09:32;;;;;;;;;;;;;;;5.58;100.00;99201.66;5011135;28;20396;-85
2023/10/23 09:11:57;;;;;;;;;;;;;;;5.55;100.00;99201.78;5002892;28;19925;-87
2023/10/23 09:14:31;;;;;;;;;;;;;;;5.52;100.00;99207.16;5002670;28;20007;-84
2023/10/23 09:16:56;;;;;;;;;;;;;;;5.48;100.00;99218.66;5011080;28;20041;-87
2023/10/23 09:19:32;;;;;;;;;;;;;;;5.56;100.00;99213.16;5012492;28;20408;-86
2023/10/23 09:21:58;;;;;;;;;;;;;;;5.58;100.00;99204.28;5012240;28;20288;-85
2023/10/23 09:24:24;;;;;;;;;;;;;;;5.50;100.00;99208.94;5011078;28;20217;-84
2023/10/23 09:26:52;;;;;;;;;;;;;;;5.56;100.00;99203.50;5011453;28;19913;-84
2023/10/23 09:29:21;;;;;;;;;;;;;;;5.63;100.00;99197.16;5012591;28;19924;-84
2023/10/23 09:31:49;;;;;;;;;;;;;;;5.67;100.00;99194.44;5012182;28;19920;-84
2023/10/23 09:34:36;;;;;;;;;;;;;;;5.64;100.00;99188.34;5012363;28;20377;-85
2023/10/23 09:37:02;;;;;;;;;;;;;;;5.68;100.00;99180.34;4990982;28;19932;-85
2023/10/23 09:39:30;;;;;;;;;;;;;;;5.68;100.00;99175.09;4973733;28;19964;-84
2023/10/23 09:41:56;;;;;;;;;;;;;;;5.60;100.00;99177.97;4974999;28;20024;-84
2023/10/23 09:44:24;;;;;;;;;;;;;;;5.59;100.00;99174.50;4975502;28;20049;-84
2023/10/23 09:46:50;;;;;;;;;;;;;;;5.67;100.00;99181.28;4974966;28;19922;-85
2023/10/23 09:49:16;;;;;;;;;;;;;;;5.67;100.00;99174.25;4975127;28;19961;-85
2023/10/23 09:51:42;;;;;;;;;;;;;;;5.58;100.00;99183.28;4992571;28;20015;-84
2023/10/23 09:54:11;;;;;;;;;;;;;;;5.64;100.00;99180.44;4991635;28;19922;-86
2023/10/23 09:56:41;;;;;;;;;;;;;;;5.67;100.00;99173.41;4992434;28;20307;-86
2023/10/23 09:59:07;;;;;;;;;;;;;;;5.58;100.00;99172.75;4995008;28;20064;-85
2023/10/23 10:01:36;;;;;;;;;;;;;;;5.63;100.00;99173.50;4995733;28;20369;-85
2023/10/23 10:04:16;;;;;;;;;;;;;;;5.62;100.00;99171.75;4978320;28;19921;-91
2023/10/23 10:06:45;;;;;;;;;;;;;;;5.62;100.00;99163.88;4995003;28;20361;-85
2023/10/23 10:09:21;;;;;;;;;;;;;;;5.61;100.00;99163.94;4995111;28;20023;-84
2023/10/23 10:11:48;;;;;;;;;;;;;;;5.70;100.00;99166.25;4995935;28;19924;-85
2023/10/23 10:14:14;;;;;;;;;;;;;;;5.68;100.00;99160.19;4995629;28;19917;-86
2023/10/23 10:16:43;;;;;;;;;;;;;;;5.67;100.00;99160.25;4978486;28;20383;-84
2023/10/23 10:19:08;;;;;;;;;;;;;;;5.70;100.00;99157.53;4978600;28;20380;-86
2023/10/23 10:21:52;;;;;;;;;;;;;;;5.61;100.00;99153.41;4994697;28;19921;-90
2023/10/23 10:24:20;;;;;;;;;;;;;;;5.67;100.00;99150.59;4993164;28;19969;-85
2023/10/23 10:26:55;;;;;;;;;;;;;;;5.71;100.00;99154.84;4994355;28;19922;-89
2023/10/23 10:29:20;;;;;;;;;;;;;;;5.77;100.00;99133.59;4996331;28;19918;-87
2023/10/23 10:32:12;;;;;;;;;;;;;;;5.65;100.00;99139.28;4978430;28;19917;-85
2023/10/23 10:34:47;;;;;;;;;;;;;;;5.75;100.00;99131.94;4992062;28;20284;-85
2023/10/23 10:37:13;;;;;;;;;;;;;;;5.57;100.00;99128.16;4994218;28;19922;-84
2023/10/23 10:39:50;;;;;;;;;;;;;;;5.68;100.00;99120.78;4976865;28;20206;-88
2023/10/23 10:45:22;;;;;;;;;;;;;;;5.66;100.00;99090.19;4988280;28;20288;-84
2023/10/23 10:47:52;;;;;;;;;;;;;;;5.66;100.00;99082.28;4995477;28;19922;-89
2023/10/23 10:50:31;;;;;;;;;;;;;;;5.69;100.00;99071.69;4994865;28;20048;-87
2023/10/23 10:53:04;;;;;;;;;;;;;;;5.68;100.00;99064.69;4977434;28;19940;-86
2023/10/23 10:55:33;;;;;;;;;;;;;;;5.67;100.00;99055.13;4993885;28;20008;-88
2023/10/23 10:57:59;;;;;;;;;;;;;;;5.72;100.00;99050.56;4977511;28;19929;-86
2023/10/23 11:00:35;;;;;;;;;;;;;;;5.73;100.00;99047.03;4995023;28;20000;-86
2023/10/23 11:03:00;;;;;;;;;;;;;;;5.75;100.00;99045.19;4994795;28;19980;-85
2023/10/23 11:05:26;;;;;;;;;;;;;;;5.82;100.00;99039.66;4995524;28;20385;-84
2023/10/23 11:07:51;;;;;;;;;;;;;;;5.78;100.00;99034.56;4977578;28;19922;-86
2023/10/23 11:10:17;;;;;;;;;;;;;;;5.73;100.00;99024.22;4976282;28;20034;-87
2023/10/23 11:12:42;;;;;;;;;;;;;;;5.77;100.00;99022.31;4995212;28;19925;-86
2023/10/23 11:15:13;;;;;;;;;;;;;;;5.64;100.00;99027.16;4995216;28;19970;-92
2023/10/23 11:17:40;;;;;;;;;;;;;;;5.77;100.00;99019.69;4976778;28;19917;-86
2023/10/23 11:20:09;;;;;;;;;;;;;;;5.79;100.00;99017.84;4994788;28;19917;-85
2023/10/23 11:22:36;;;;;;;;;;;;;;;5.81;100.00;99031.84;4994853;28;19924;-85
2023/10/23 11:25:04;;;;;;;;;;;;;;;5.76;100.00;99039.00;4993525;28;20288;-85
2023/10/23 11:27:29;;;;;;;;;;;;;;;5.73;100.00;99026.00;4994186;28;19929;-86
2023/10/23 11:29:54;;;;;;;;;;;;;;;5.72;100.00;99024.25;4994765;28;19922;-86
2023/10/23 11:32:20;;;;;;;;;;;;;;;5.84;100.00;99010.69;4977263;28;19957;-85
2023/10/23 11:34:47;;;;;;;;;;;;;;;5.75;100.00;99018.91;4994437;28;19918;-85
2023/10/23 11:37:12;;;;;;;;;;;;;;;5.70;100.00;99005.06;4994666;28;19925;-85
2023/10/23 11:39:38;;;;;;;;;;;;;;;5.71;100.00;99006.75;4975795;28;19980;-88
2023/10/23 11:42:04;;;;;;;;;;;;;;;5.77;100.00;99006.53;4977020;28;19924;-86
2023/10/23 11:44:33;;;;;;;;;;;;;;;5.77;100.00;99011.81;4976282;28;19951;-87
2023/10/23 11:47:28;;;;;;;;;;;;;;;5.59;100.00;99014.16;4994389;28;19918;-88
2023/10/23 11:49:53;;;;;;;;;;;;;;;5.75;100.00;99003.13;4988673;28;19921;-87
2023/10/23 11:52:19;;;;;;;;;;;;;;;10.05;100.00;98997.41;4976998;28;19917;-88
2023/10/23 11:54:44;;;;;;;;;;;;;;;6.54;100.00;98996.69;4993033;28;19944;-88
2023/10/23 11:57:10;;;;;;;;;;;;;;;6.23;100.00;98999.63;4976648;28;20293;-89
2023/10/23 11:59:38;;;;;;;;;;;;;;;6.12;100.00;98991.28;4992255;28;19925;-84
2023/10/23 12:02:04;;;;;;;;;;;;;;;6.05;100.00;98979.28;4994448;28;19926;-89
2023/10/23 12:04:35;;;;;;;;;;;;;;;5.99;100.00;98969.84;4976816;28;20009;-89
2023/10/23 12:07:26;;;;;;;;;;;;;;;5.93;100.00;98970.88;5101897;23;19925;-84
2023/10/23 12:10:02;;;;;;;;;;;;;;;5.94;100.00;98961.25;5013419;28;19921;-89
2023/10/23 12:12:38;;;;;;;;;;;;;;;6.00;100.00;98946.13;5008417;28;19921;-88
2023/10/23 12:15:04;;;;;;;;;;;;;;;5.91;100.00;98946.44;5032559;28;19917;-85
2023/10/23 12:17:29;;;;;;;;;;;;;;;5.90;100.00;98934.19;5033029;28;20004;-84
2023/10/23 12:19:57;;;;;;;;;;;;;;;5.74;100.00;98933.91;5023445;28;19921;-88
2023/10/23 12:22:22;;;;;;;;;;;;;;;5.89;100.00;98936.88;5014733;28;19917;-88
2023/10/23 12:24:48;;;;;;;;;;;;;;;5.85;100.00;98932.66;5031784;28;20292;-89
2023/10/23 12:27:13;;;;;;;;;;;;;;;5.88;100.00;98930.78;5007296;28;19921;-87
2023/10/23 12:29:38;;;;;;;;;;;;;;;5.86;100.00;98935.25;5033010;28;20360;-88
2023/10/23 12:32:04;;;;;;;;;;;;;;;5.81;100.00;98945.06;5033078;28;20356;-86
2023/10/23 12:34:42;;;;;;;;;;;;;;;;;;;;;
2023/10/23 12:43:01;;;;;;;;;;;;;;;5.78;100.00;98921.53;5032811;28;20005;-86
2023/10/23 12:45:30;;;;;;;;;;;;;;;5.82;100.00;98905.59;5022676;28;20087;-93
2023/10/23 12:47:58;;;;;;;;;;;;;;;5.86;100.00;98900.22;5023022;28;19928;-87
2023/10/23 12:50:35;;;;;;;;;;;;;;;5.88;100.00;98885.22;5001801;28;19918;-90
2023/10/23 12:53:02;;;;;;;;;;;;;;;5.81;100.00;98867.06;5031986;28;19931;-92
2023/10/23 12:55:28;;;;;;;;;;;;;;;5.81;100.00;98860.94;5013142;28;19925;-87
2023/10/23 12:57:53;;;;;;;;;;;;;;;5.79;100.00;98847.84;5013603;28;19928;-87
2023/10/23 13:00:18;;;;;;;;;;;;;;;5.80;100.00;98846.06;5009359;28;20004;-87
2023/10/23 13:02:44;;;;;;;;;;;;;;;5.81;100.00;98832.88;5006911;28;20007;-86
2023/10/23 13:05:10;;;;;;;;;;;;;;;5.91;100.00;98814.97;5022204;28;20703;-86
2023/10/23 13:07:35;;;;;;;;;;;;;;;5.84;100.00;98813.50;5021157;28;19921;-84
2023/10/23 13:10:01;;;;;;;;;;;;;;;5.87;100.00;98797.63;5018999;28;19917;-85
2023/10/23 13:12:26;;;;;;;;;;;;;;;5.87;100.00;98795.00;5011671;28;20047;-85
2023/10/23 13:14:52;;;;;;;;;;;;;;;5.81;100.00;98796.06;5003858;28;19918;-85
2023/10/23 13:17:18;;;;;;;;;;;;;;;5.84;100.00;98808.25;5030941;28;19925;-85
2023/10/23 13:19:43;;;;;;;;;;;;;;;5.86;100.00;98814.28;5020800;28;19930;-85
2023/10/23 13:22:14;;;;;;;;;;;;;;;5.77;100.00;98806.75;5008692;28;19925;-85
2023/10/23 13:24:40;;;;;;;;;;;;;;;5.84;100.00;98808.25;5028394;28;19921;-85
2023/10/23 13:27:05;;;;;;;;;;;;;;;5.82;100.00;98810.06;5030176;28;19917;-86
2023/10/23 13:29:32;;;;;;;;;;;;;;;5.90;100.00;98813.25;5007611;28;19964;-87
2023/10/23 13:31:57;;;;;;;;;;;;;;;5.83;100.00;98817.88;5027439;28;19932;-85
2023/10/23 13:34:32;;;;;;;;;;;;;;;5.79;100.00;98810.19;5013477;28;19917;-90
2023/10/23 13:36:58;;;;;;;;;;;;;;;5.79;100.00;98797.03;5010875;28;19925;-87
2023/10/23 13:39:29;;;;;;;;;;;;;;;5.75;100.00;98791.03;5025657;28;19991;-86
2023/10/23 13:41:54;;;;;;;;;;;;;;;5.79;100.00;98790.03;5019198;28;19926;-85
2023/10/23 13:44:19;;;;;;;;;;;;;;;5.75;100.00;98787.56;5030440;28;19952;-84
2023/10/23 13:46:45;;;;;;;;;;;;;;;5.74;100.00;98791.09;5031532;28;19917;-84
2023/10/23 13:49:19;;;;;;;;;;;;;;;5.78;100.00;98764.63;5029769;28;19967;-88
2023/10/23 13:51:44;;;;;;;;;;;;;;;5.81;100.00;98768.94;5022078;28;19921;-84
2023/10/23 13:54:09;;;;;;;;;;;;;;;5.82;100.00;98768.88;5031168;28;20059;-86
2023/10/23 13:56:35;;;;;;;;;;;;;;;5.77;100.00;98764.69;5014048;28;19924;-85
2023/10/23 13:59:00;;;;;;;;;;;;;;;5.78;100.00;98758.53;5032249;28;19952;-84
2023/10/23 14:01:25;;;;;;;;;;;;;;;5.83;100.00;98759.19;5021701;28;19921;-84
2023/10/23 14:03:52;;;;;;;;;;;;;;;5.75;100.00;98756.88;5022486;28;20431;-85
2023/10/23 14:06:17;;;;;;;;;;;;;;;5.75;100.00;98756.03;5021641;28;19918;-86
2023/10/23 14:08:43;;;;;;;;;;;;;;;5.80;100.00;98746.19;5021555;28;20280;-89
2023/10/23 14:11:11;;;;;;;;;;;;;;;6.24;100.00;98742.66;5002926;28;19921;-84
2023/10/23 14:13:37;;;;;;;;;;;;;;;5.90;100.00;98738.78;5021973;28;20372;-83
2023/10/23 14:16:04;;;;;;;;;;;;;;;5.87;100.00;98739.78;5021300;28;19928;-88
2023/10/23 14:18:29;;;;;;;;;;;;;;;5.83;100.00;98740.81;5032358;28;20025;-84
2023/10/23 14:20:54;;;;;;;;;;;;;;;5.88;100.00;98743.25;5031515;28;20000;-84
2023/10/23 14:23:20;;;;;;;;;;;;;;;5.80;100.00;98733.03;5031471;28;19925;-88
2023/10/23 14:25:45;;;;;;;;;;;;;;;5.79;100.00;98726.06;5012902;28;19964;-83
2023/10/23 14:28:10;;;;;;;;;;;;;;;5.72;100.00;98729.88;5005900;28;19928;-85
2023/10/23 14:30:35;;;;;;;;;;;;;;;5.79;100.00;98720.78;5031766;28;19925;-83
2023/10/23 14:33:01;;;;;;;;;;;;;;;5.90;100.00;98723.00;5028271;28;19921;-85
2023/10/23 14:35:31;;;;;;;;;;;;;;;5.78;100.00;98727.00;5030710;28;19925;-84
2023/10/23 14:37:59;;;;;;;;;;;;;;;5.84;100.00;98713.59;5031106;28;20340;-85
2023/10/23 14:40:25;;;;;;;;;;;;;;;5.87;100.00;98720.50;5027898;28;19932;-85
2023/10/23 14:42:50;;;;;;;;;;;;;;;5.79;100.00;98715.53;5029035;28;19928;-85
2023/10/23 14:45:16;;;;;;;;;;;;;;;5.83;100.00;98704.00;5032129;28;19929;-84
2023/10/23 14:47:41;;;;;;;;;;;;;;;5.82;100.00;98700.53;5032689;28;19914;-84
2023/10/23 14:50:07;;;;;;;;;;;;;;;5.86;100.00;98690.72;5025134;28;20394;-84
2023/10/23 14:52:32;;;;;;;;;;;;;;;5.86;100.00;98685.47;5024813;28;19918;-85
2023/10/23 14:54:59;;;;;;;;;;;;;;;5.79;100.00;98678.72;5033200;28;19921;-86
2023/10/23 14:57:25;;;;;;;;;;;;;;;5.81;100.00;98666.41;5034007;28;20059;-84
2023/10/23 14:59:50;;;;;;;;;;;;;;;5.79;100.00;98655.06;5014579;28;20012;-85
2023/10/23 15:02:15;;;;;;;;;;;;;;;5.86;100.00;98643.41;5008499;28;19925;-84
2023/10/23 15:04:40;;;;;;;;;;;;;;;5.80;100.00;98654.16;5034617;28;20014;-83
2023/10/23 15:07:06;;;;;;;;;;;;;;;5.80;100.00;98660.28;5017032;28;19929;-85
2023/10/23 15:09:31;;;;;;;;;;;;;;;5.81;100.00;98651.47;5007546;28;19936;-83
2023/10/23 15:11:56;;;;;;;;;;;;;;;5.74;100.00;98643.91;5016761;28;19929;-83
2023/10/23 15:14:22;;;;;;;;;;;;;;;5.73;100.00;98642.22;5016641;28;19917;-83
2023/10/23 15:16:47;;;;;;;;;;;;;;;5.83;100.00;98646.16;5008353;28;20003;-82
2023/10/23 15:19:12;;;;;;;;;;;;;;;5.84;100.00;98645.25;5016497;28;19924;-82
2023/10/23 15:21:39;;;;;;;;;;;;;;;5.80;100.00;98638.41;5024546;28;19927;-83
2023/10/23 15:24:04;;;;;;;;;;;;;;;5.74;100.00;98647.38;5034100;28;19957;-83
2023/10/23 15:26:30;;;;;;;;;;;;;;;5.77;100.00;98652.50;5015201;28;19975;-83
2023/10/23 15:28:55;;;;;;;;;;;;;;;5.72;100.00;98666.78;5034197;28;20450;-83
2023/10/23 15:34:25;;;;;;;;;;;;;;;5.82;100.00;98668.09;5036367;23;19929;-83
2023/10/23 15:36:50;;;;;;;;;;;;;;;5.74;100.00;98675.44;5016030;28;19917;-85
2023/10/23 15:39:16;;;;;;;;;;;;;;;5.77;100.00;98683.22;5014742;28;19917;-85
2023/10/23 15:41:41;;;;;;;;;;;;;;;5.79;100.00;98669.09;5016220;28;20288;-83
2023/10/23 15:44:06;;;;;;;;;;;;;;;5.67;100.00;98676.63;5034992;28;19968;-86
2023/10/23 15:46:32;;;;;;;;;;;;;;;5.75;100.00;98671.91;5033707;28;20368;-88
2023/10/23 15:48:59;;;;;;;;;;;;;;;5.75;100.00;98662.25;5015964;28;19921;-83
2023/10/23 15:51:24;;;;;;;;;;;;;;;5.79;100.00;98660.34;5033224;28;19917;-85
2023/10/23 15:53:49;;;;;;;;;;;;;;;5.77;100.00;98663.03;5015927;28;19928;-88
2023/10/23 15:56:15;;;;;;;;;;;;;;;5.77;100.00;98677.94;5031254;28;19923;-83
2023/10/23 15:58:58;;;;;;;;;;;;;;;;;;;;;
2023/10/23 16:01:25;;;;;;;;;;;;;;;5.88;100.00;98719.59;5033195;28;19924;-87
2023/10/23 16:03:51;;;;;;;;;;;;;;;5.88;100.00;98744.09;5031145;28;19929;-82
2023/10/23 16:06:17;;;;;;;;;;;;;;;5.81;100.00;98756.63;5015500;28;19928;-84
2023/10/23 16:08:42;;;;;;;;;;;;;;;5.79;100.00;98758.47;5033472;28;19917;-83
2023/10/23 16:11:07;;;;;;;;;;;;;;;5.82;100.00;98768.88;5014517;28;20430;-90
2023/10/23 16:13:36;;;;;;;;;;;;;;;5.82;100.00;98768.00;5033391;28;20300;-83
2023/10/23 16:16:01;;;;;;;;;;;;;;;5.76;100.00;98752.47;5015447;28;19959;-84
2023/10/23 16:18:26;;;;;;;;;;;;;;;5.87;100.00;98752.91;5015271;28;19965;-84
2023/10/23 16:20:52;;;;;;;;;;;;;;;5.84;100.00;98750.41;5033158;28;19928;-84
2023/10/23 16:23:17;;;;;;;;;;;;;;;5.81;100.00;98746.13;5033124;28;20426;-83
2023/10/23 16:28:50;;;;;;;;;;;;;;;5.79;100.00;98747.09;5023560;28;20012;-84
2023/10/23 16:31:17;;;;;;;;;;;;;;;5.73;100.00;98749.97;5032971;28;20091;-84
2023/10/23 16:33:46;;;;;;;;;;;;;;;5.72;100.00;98746.47;5032055;28;19928;-86
2023/10/23 16:36:11;;;;;;;;;;;;;;;5.76;100.00;98742.81;5014998;28;19917;-84
2023/10/23 16:38:36;;;;;;;;;;;;;;;5.81;100.00;98734.75;5032811;28;19963;-85
2023/10/23 16:41:04;;;;;;;;;;;;;;;5.70;100.00;98722.03;5031599;28;19920;-84
2023/10/23 16:43:30;;;;;;;;;;;;;;;5.73;100.00;98715.81;5014964;28;20392;-84
2023/10/23 16:45:55;;;;;;;;;;;;;;;5.68;100.00;98680.94;5032873;28;19923;-85
2023/10/23 16:48:20;;;;;;;;;;;;;;;5.71;100.00;98644.03;5032548;28;20269;-83
2023/10/23 16:50:45;;;;;;;;;;;;;;;5.71;100.00;98679.06;5033540;28;19967;-83
2023/10/23 16:53:11;;;;;;;;;;;;;;;5.73;100.00;98694.78;5032635;28;19920;-83
2023/10/23 16:55:36;;;;;;;;;;;;;;;5.74;100.00;98702.56;5031178;28;19928;-84
2023/10/23 16:58:05;;;;;;;;;;;;;;;5.70;100.00;98694.91;5032609;28;19968;-86
2023/10/23 17:00:30;;;;;;;;;;;;;;;5.77;100.00;98659.56;5014525;28;19917;-86
2023/10/23 17:02:55;;;;;;;;;;;;;;;5.76;100.00;98644.69;5014703;28;19927;-88
2023/10/23 17:05:21;;;;;;;;;;;;;;;5.64;100.00;98657.41;5014641;28;19917;-86
2023/10/23 17:07:46;;;;;;;;;;;;;;;5.66;100.00;98670.50;5014520;28;19928;-87
2023/10/23 17:10:11;;;;;;;;;;;;;;;5.73;100.00;98660.63;5013470;28;20358;-85
2023/10/23 17:12:36;;;;;;;;;;;;;;;5.74;100.00;98654.41;5032257;28;19925;-84
2023/10/23 17:15:02;;;;;;;;;;;;;;;5.73;100.00;98652.72;5032245;28;19917;-84
2023/10/23 17:17:38;;;;;;;;;;;;;;;5.77;100.00;98646.41;5032196;28;20453;-86
2023/10/23 17:20:04;;;;;;;;;;;;;;;5.79;100.00;98631.41;5032411;28;19917;-86
2023/10/23 17:22:29;;;;;;;;;;;;;;;5.75;100.00;98603.56;5032034;28;19967;-85
2023/10/23 17:24:55;;;;;;;;;;;;;;;5.77;100.00;98583.31;5030971;28;19956;-83
2023/10/23 17:27:20;;;;;;;;;;;;;;;5.74;100.00;98586.94;5032054;28;20020;-88
2023/10/23 17:29:51;;;;;;;;;;;;;;;5.67;100.00;98576.75;5032195;28;19918;-87
2023/10/23 17:32:17;;;;;;;;;;;;;;;5.68;100.00;98581.94;5013668;28;19917;-88
2023/10/23 17:34:42;;;;;;;;;;;;;;;5.75;100.00;98582.53;5014072;28;19979;-86
2023/10/23 17:37:07;;;;;;;;;;;;;;;5.75;100.00;98562.34;5014163;28;20359;-84
2023/10/23 17:39:33;;;;;;;;;;;;;;;5.68;100.00;98563.56;5030715;28;19978;-84
2023/10/23 17:41:58;;;;;;;;;;;;;;;5.72;100.00;98572.16;5032016;28;19928;-84
2023/10/23 17:44:23;;;;;;;;;;;;;;;5.75;100.00;98567.63;5031767;28;19923;-86
2023/10/23 17:50:11;;;;;;;;;;;;;;;5.74;100.00;98581.66;5012312;23;20056;-87
2023/10/23 17:52:37;;;;;;;;;;;;;;;5.75;100.00;98596.53;5005785;28;20000;-87
2023/10/23 17:55:05;;;;;;;;;;;;;;;5.69;100.00;98593.31;5030567;28;19921;-86
2023/10/23 17:57:31;;;;;;;;;;;;;;;5.75;100.00;98600.94;5003924;28;20487;-87
2023/10/23 17:59:57;;;;;;;;;;;;;;;5.74;100.00;98607.94;5030262;28;19921;-87
2023/10/23 18:02:22;;;;;;;;;;;;;;;5.71;100.00;98596.72;5013952;28;19924;-87
2023/10/23 18:04:48;;;;;;;;;;;;;;;5.71;100.00;98588.84;5005782;28;20328;-85
2023/10/23 18:07:13;;;;;;;;;;;;;;;5.79;100.00;98573.59;5013982;28;19982;-86
2023/10/23 18:09:39;;;;;;;;;;;;;;;5.74;100.00;98575.56;5012693;28;19931;-86
2023/10/23 18:12:04;;;;;;;;;;;;;;;5.69;100.00;98580.16;4997607;28;19917;-87
2023/10/23 18:14:29;;;;;;;;;;;;;;;5.70;100.00;98568.75;5013726;28;19959;-86
2023/10/23 18:16:54;;;;;;;;;;;;;;;5.73;100.00;98563.38;5014303;28;19917;-88
2023/10/23 18:19:20;;;;;;;;;;;;;;;5.78;100.00;98561.38;5006643;28;19917;-88
2023/10/23 18:21:45;;;;;;;;;;;;;;;5.75;100.00;98554.47;5017444;28;19925;-86
2023/10/23 18:24:12;;;;;;;;;;;;;;;5.73;100.00;98548.44;5034658;28;19975;-86
2023/10/23 18:26:37;;;;;;;;;;;;;;;5.75;100.00;98543.97;5010174;28;19962;-85
2023/10/23 18:29:02;;;;;;;;;;;;;;;5.76;100.00;98537.78;5009374;28;19925;-85
2023/10/23 18:31:28;;;;;;;;;;;;;;;5.72;100.00;98540.63;5017357;28;20434;-85
2023/10/23 18:33:53;;;;;;;;;;;;;;;5.72;100.00;98530.94;5035373;28;19928;-86
2023/10/23 18:36:21;;;;;;;;;;;;;;;5.68;100.00;98534.66;5034852;28;19921;-93
2023/10/23 18:38:47;;;;;;;;;;;;;;;5.68;100.00;98523.25;5035078;28;20007;-85
2023/10/23 18:41:16;;;;;;;;;;;;;;;5.68;100.00;98541.66;5006628;28;20131;-85
2023/10/23 18:43:42;;;;;;;;;;;;;;;5.71;100.00;98534.50;5016366;28;20025;-86
2023/10/23 18:46:11;;;;;;;;;;;;;;;5.69;100.00;98538.97;5008965;28;19967;-85
2023/10/23 18:48:36;;;;;;;;;;;;;;;5.79;100.00;98539.41;5017072;28;20568;-86
2023/10/23 18:51:01;;;;;;;;;;;;;;;5.72;100.00;98535.34;5034961;28;20000;-86
2023/10/23 18:53:27;;;;;;;;;;;;;;;5.74;100.00;98521.22;5008863;28;20307;-85
2023/10/23 18:55:53;;;;;;;;;;;;;;;5.75;100.00;98515.03;5006523;28;20068;-85
2023/10/23 18:58:18;;;;;;;;;;;;;;;5.74;100.00;98533.50;5033263;28;19921;-84
2023/10/23 19:00:43;;;;;;;;;;;;;;;5.80;100.00;98546.41;5034568;28;20002;-84
2023/10/23 19:03:08;;;;;;;;;;;;;;;5.80;100.00;98528.00;5034563;28;19975;-84
2023/10/23 19:05:36;;;;;;;;;;;;;;;5.72;100.00;98522.22;5034628;28;20000;-88
2023/10/23 19:08:02;;;;;;;;;;;;;;;5.72;100.00;98512.56;5024798;28;19920;-84
2023/10/23 19:10:27;;;;;;;;;;;;;;;5.81;100.00;98516.56;5031670;28;19923;-85
2023/10/23 19:12:52;;;;;;;;;;;;;;;5.76;100.00;98516.75;5034560;28;19999;-84
2023/10/23 19:15:17;;;;;;;;;;;;;;;5.69;100.00;98515.31;5034469;28;19921;-85
2023/10/23 19:17:43;;;;;;;;;;;;;;;5.68;100.00;98528.50;5034392;28;20356;-85
2023/10/23 19:20:08;;;;;;;;;;;;;;;5.68;100.00;98534.66;5034444;28;19947;-84
2023/10/23 19:22:35;;;;;;;;;;;;;;;5.72;100.00;98535.34;4999363;28;19917;-84
2023/10/23 19:25:01;;;;;;;;;;;;;;;5.72;100.00;98543.25;5033104;28;20292;-84
2023/10/23 19:27:26;;;;;;;;;;;;;;;5.74;100.00;98558.00;5008585;28;19948;-85
2023/10/23 19:29:52;;;;;;;;;;;;;;;5.76;100.00;98563.19;5024112;28;19970;-84
2023/10/23 19:32:20;;;;;;;;;;;;;;;5.75;100.00;98566.78;5034213;28;19960;-85
2023/10/23 19:34:45;;;;;;;;;;;;;;;5.66;100.00;98567.16;5033307;28;19924;-87
2023/10/23 19:37:11;;;;;;;;;;;;;;;5.72;100.00;98569.53;5023443;28;19917;-84
2023/10/23 19:39:37;;;;;;;;;;;;;;;5.67;100.00;98574.13;5023351;28;20392;-84
2023/10/23 19:42:04;;;;;;;;;;;;;;;5.69;100.00;98572.28;5024143;28;20023;-86
2023/10/23 19:44:30;;;;;;;;;;;;;;;5.79;100.00;98561.31;5023908;28;19918;-84
2023/10/23 19:46:57;;;;;;;;;;;;;;;5.74;100.00;98565.91;5024253;28;19928;-84
2023/10/23 19:49:23;;;;;;;;;;;;;;;5.75;100.00;98566.78;5007840;28;19928;-85
2023/10/23 19:51:49;;;;;;;;;;;;;;;5.75;100.00;98556.25;5033783;28;19947;-90
2023/10/23 19:54:15;;;;;;;;;;;;;;;5.66;100.00;98557.47;5031021;28;19924;-85
2023/10/23 19:56:40;;;;;;;;;;;;;;;5.66;100.00;98561.91;5033586;28;19917;-84
2023/10/23 19:59:06;;;;;;;;;;;;;;;5.72;100.00;98554.59;5033823;28;20367;-83
2023/10/23 20:01:31;;;;;;;;;;;;;;;5.70;100.00;98559.06;5015840;28;20283;-85
2023/10/23 20:03:56;;;;;;;;;;;;;;;5.73;100.00;98555.47;5023534;28;19917;-84
2023/10/23 20:06:22;;;;;;;;;;;;;;;5.68;100.00;98558.31;5023641;28;20384;-84
2023/10/23 20:08:47;;;;;;;;;;;;;;;5.71;100.00;98555.53;5032232;28;20000;-85
2023/10/23 20:11:12;;;;;;;;;;;;;;;5.71;100.00;98571.31;5006478;28;20372;-84
2023/10/23 20:13:37;;;;;;;;;;;;;;;5.71;100.00;98573.06;5015577;28;19924;-86
2023/10/23 20:16:03;;;;;;;;;;;;;;;5.75;100.00;98583.38;5023439;28;20038;-84
2023/10/23 20:18:29;;;;;;;;;;;;;;;5.76;100.00;98576.34;5015608;28;19928;-83
2023/10/23 20:20:54;;;;;;;;;;;;;;;5.69;100.00;98598.56;5015417;28;20379;-84
2023/10/23 20:23:20;;;;;;;;;;;;;;;5.69;100.00;98588.06;5007333;28;20388;-83
2023/10/23 20:25:45;;;;;;;;;;;;;;;5.69;100.00;98601.19;5014299;28;19967;-85
2023/10/23 20:28:10;;;;;;;;;;;;;;;5.69;100.00;98609.09;5033063;28;19921;-86
2023/10/23 20:30:36;;;;;;;;;;;;;;;5.65;100.00;98608.34;5006923;28;19952;-85
2023/10/23 20:33:02;;;;;;;;;;;;;;;5.71;100.00;98600.22;5023804;28;19972;-86
2023/10/23 20:35:28;;;;;;;;;;;;;;;5.72;100.00;98612.44;5024821;28;19928;-85
2023/10/23 20:37:53;;;;;;;;;;;;;;;5.72;100.00;98608.94;5024827;28;19917;-85
2023/10/23 20:40:18;;;;;;;;;;;;;;;5.70;100.00;98611.66;5022140;28;20304;-85
2023/10/23 20:42:44;;;;;;;;;;;;;;;5.69;100.00;98611.72;5006765;28;19921;-85
2023/10/23 20:45:09;;;;;;;;;;;;;;;5.69;100.00;98603.81;5032857;28;20277;-85
2023/10/23 20:47:43;;;;;;;;;;;;;;;5.71;100.00;98612.50;5032827;28;19968;-85
2023/10/23 20:50:09;;;;;;;;;;;;;;;5.70;100.00;98610.81;5032531;28;19978;-86
2023/10/23 20:52:34;;;;;;;;;;;;;;;5.74;100.00;98610.59;5032709;28;19917;-86
2023/10/23 20:55:00;;;;;;;;;;;;;;;5.75;100.00;98601.78;5031346;28;19928;-85
2023/10/23 20:57:25;;;;;;;;;;;;;;;5.74;100.00;98607.09;5032446;28;19921;-85
2023/10/23 20:59:50;;;;;;;;;;;;;;;5.71;100.00;98594.97;5032581;28;20003;-85